sensor_id;sensor_type;location;lat;lon;timestamp;P1;durP1;ratioP1;P2;durP2;ratioP2
35803;SDS011;21924;51.934;7.414;2023-02-28T00:02:31;8.63;;;5.83;;
35803;SDS011;21924;51.934;7.414;2023-02-28T00:05:19;10.83;;;6.07;;
35803;SDS011;21924;51.934;7.414;2023-02-28T00:08:05;9.37;;;5.33;;
35803;SDS011;21924;51.934;7.414;2023-02-28T00:10:49;8.57;;;5.80;;
35803;SDS011;21924;51.934;7.414;2023-02-28T00:13:34;8.10;;;5.87;;
35803;SDS011;21924;51.934;7.414;2023-02-28T00:16:21;9.57;;;5.93;;
35803;SDS011;21924;51.934;7.414;2023-02-28T00:19:05;7.20;;;5.83;;
35803;SDS011;21924;51.934;7.414;2023-02-28T00:21:50;13.50;;;5.80;;
35803;SDS011;21924;51.934;7.414;2023-02-28T00:24:34;7.37;;;5.57;;
35803;SDS011;21924;51.934;7.414;2023-02-28T00:27:18;6.73;;;5.90;;
35803;SDS011;21924;51.934;7.414;2023-02-28T00:30:03;13.23;;;5.47;;
35803;SDS011;21924;51.934;7.414;2023-02-28T00:32:49;8.80;;;6.07;;
35803;SDS011;21924;51.934;7.414;2023-02-28T00:35:34;12.30;;;5.53;;
35803;SDS011;21924;51.934;7.414;2023-02-28T00:38:18;6.80;;;5.70;;
35803;SDS011;21924;51.934;7.414;2023-02-28T00:41:02;8.23;;;5.63;;
35803;SDS011;21924;51.934;7.414;2023-02-28T00:43:50;6.77;;;5.67;;
35803;SDS011;21924;51.934;7.414;2023-02-28T00:46:34;7.83;;;5.47;;
35803;SDS011;21924;51.934;7.414;2023-02-28T00:49:18;6.40;;;5.60;;
35803;SDS011;21924;51.934;7.414;2023-02-28T00:52:04;9.80;;;5.70;;
35803;SDS011;21924;51.934;7.414;2023-02-28T00:54:48;8.40;;;5.40;;
35803;SDS011;21924;51.934;7.414;2023-02-28T00:57:32;6.47;;;5.70;;
35803;SDS011;21924;51.934;7.414;2023-02-28T01:00:17;8.47;;;5.13;;
35803;SDS011;21924;51.934;7.414;2023-02-28T01:03:02;10.20;;;6.03;;
35803;SDS011;21924;51.934;7.414;2023-02-28T01:05:46;7.20;;;5.73;;
35803;SDS011;21924;51.934;7.414;2023-02-28T01:08:30;9.10;;;6.37;;
35803;SDS011;21924;51.934;7.414;2023-02-28T01:11:15;11.37;;;6.13;;
35803;SDS011;21924;51.934;7.414;2023-02-28T01:14:00;7.35;;;5.50;;
35803;SDS011;21924;51.934;7.414;2023-02-28T01:16:45;6.60;;;5.23;;
35803;SDS011;21924;51.934;7.414;2023-02-28T01:19:29;6.43;;;5.43;;
35803;SDS011;21924;51.934;7.414;2023-02-28T01:22:14;8.60;;;5.03;;
35803;SDS011;21924;51.934;7.414;2023-02-28T01:24:58;5.90;;;5.30;;
35803;SDS011;21924;51.934;7.414;2023-02-28T01:27:42;7.27;;;5.17;;
35803;SDS011;21924;51.934;7.414;2023-02-28T01:30:27;7.53;;;5.70;;
35803;SDS011;21924;51.934;7.414;2023-02-28T01:33:11;10.30;;;5.10;;
35803;SDS011;21924;51.934;7.414;2023-02-28T01:36:06;8.70;;;5.80;;
35803;SDS011;21924;51.934;7.414;2023-02-28T01:38:58;5.93;;;5.33;;
35803;SDS011;21924;51.934;7.414;2023-02-28T01:41:42;10.33;;;5.50;;
35803;SDS011;21924;51.934;7.414;2023-02-28T01:47:43;4.90;;;4.18;;
35803;SDS011;21924;51.934;7.414;2023-02-28T01:50:29;7.97;;;5.30;;
35803;SDS011;21924;51.934;7.414;2023-02-28T01:53:18;5.47;;;4.97;;
35803;SDS011;21924;51.934;7.414;2023-02-28T01:56:07;9.30;;;6.90;;
35803;SDS011;21924;51.934;7.414;2023-02-28T01:58:54;9.00;;;5.57;;
35803;SDS011;21924;51.934;7.414;2023-02-28T02:01:39;8.33;;;6.10;;
35803;SDS011;21924;51.934;7.414;2023-02-28T02:04:23;6.27;;;5.57;;
35803;SDS011;21924;51.934;7.414;2023-02-28T02:07:12;10.37;;;6.40;;
35803;SDS011;21924;51.934;7.414;2023-02-28T02:16:04;8.98;;;5.90;;
35803;SDS011;21924;51.934;7.414;2023-02-28T02:22:30;8.93;;;6.40;;
35803;SDS011;21924;51.934;7.414;2023-02-28T02:25:42;10.63;;;6.50;;
35803;SDS011;21924;51.934;7.414;2023-02-28T02:31:40;7.53;;;5.77;;
35803;SDS011;21924;51.934;7.414;2023-02-28T02:37:52;9.90;;;6.23;;
35803;SDS011;21924;51.934;7.414;2023-02-28T02:47:10;10.77;;;6.53;;
35803;SDS011;21924;51.934;7.414;2023-02-28T02:49:59;9.83;;;6.73;;
35803;SDS011;21924;51.934;7.414;2023-02-28T02:52:49;9.07;;;6.37;;
35803;SDS011;21924;51.934;7.414;2023-02-28T02:55:39;33.27;;;11.40;;
35803;SDS011;21924;51.934;7.414;2023-02-28T02:58:31;18.60;;;9.00;;
35803;SDS011;21924;51.934;7.414;2023-02-28T03:01:20;36.17;;;11.73;;
35803;SDS011;21924;51.934;7.414;2023-02-28T03:04:12;11.50;;;6.40;;
35803;SDS011;21924;51.934;7.414;2023-02-28T03:07:00;93.67;;;21.30;;
35803;SDS011;21924;51.934;7.414;2023-02-28T03:09:54;311.73;;;71.40;;
35803;SDS011;21924;51.934;7.414;2023-02-28T03:12:40;529.03;;;139.57;;
35803;SDS011;21924;51.934;7.414;2023-02-28T03:15:37;106.03;;;41.07;;
35803;SDS011;21924;51.934;7.414;2023-02-28T03:30:19;12.50;;;6.90;;
35803;SDS011;21924;51.934;7.414;2023-02-28T03:33:11;10.17;;;7.10;;
35803;SDS011;21924;51.934;7.414;2023-02-28T03:36:02;9.43;;;7.70;;
35803;SDS011;21924;51.934;7.414;2023-02-28T03:39:00;12.47;;;6.60;;
35803;SDS011;21924;51.934;7.414;2023-02-28T03:41:57;7.50;;;6.70;;
35803;SDS011;21924;51.934;7.414;2023-02-28T03:44:48;12.93;;;6.63;;
35803;SDS011;21924;51.934;7.414;2023-02-28T03:47:39;10.27;;;6.40;;
35803;SDS011;21924;51.934;7.414;2023-02-28T03:50:38;9.03;;;7.30;;
35803;SDS011;21924;51.934;7.414;2023-02-28T03:59:07;12.40;;;8.57;;
35803;SDS011;21924;51.934;7.414;2023-02-28T04:02:01;14.83;;;8.17;;
35803;SDS011;21924;51.934;7.414;2023-02-28T04:04:46;13.83;;;6.77;;
35803;SDS011;21924;51.934;7.414;2023-02-28T04:07:31;15.80;;;7.47;;
35803;SDS011;21924;51.934;7.414;2023-02-28T04:10:16;9.77;;;6.70;;
35803;SDS011;21924;51.934;7.414;2023-02-28T04:13:00;9.30;;;6.17;;
35803;SDS011;21924;51.934;7.414;2023-02-28T04:15:44;8.87;;;6.30;;
35803;SDS011;21924;51.934;7.414;2023-02-28T04:18:29;13.67;;;7.27;;
35803;SDS011;21924;51.934;7.414;2023-02-28T04:21:13;14.93;;;8.97;;
35803;SDS011;21924;51.934;7.414;2023-02-28T04:23:57;8.77;;;6.90;;
35803;SDS011;21924;51.934;7.414;2023-02-28T04:26:45;9.07;;;7.22;;
35803;SDS011;21924;51.934;7.414;2023-02-28T04:29:31;9.90;;;7.53;;
35803;SDS011;21924;51.934;7.414;2023-02-28T04:32:16;7.77;;;6.63;;
35803;SDS011;21924;51.934;7.414;2023-02-28T04:35:00;13.33;;;7.20;;
35803;SDS011;21924;51.934;7.414;2023-02-28T04:37:44;14.70;;;7.20;;
35803;SDS011;21924;51.934;7.414;2023-02-28T04:40:28;7.07;;;6.20;;
35803;SDS011;21924;51.934;7.414;2023-02-28T04:43:13;11.13;;;6.90;;
35803;SDS011;21924;51.934;7.414;2023-02-28T04:45:57;8.03;;;6.37;;
35803;SDS011;21924;51.934;7.414;2023-02-28T04:48:44;8.00;;;5.27;;
35803;SDS011;21924;51.934;7.414;2023-02-28T04:51:28;13.63;;;6.27;;
35803;SDS011;21924;51.934;7.414;2023-02-28T04:54:13;6.53;;;5.73;;
35803;SDS011;21924;51.934;7.414;2023-02-28T04:56:59;6.97;;;5.55;;
35803;SDS011;21924;51.934;7.414;2023-02-28T04:59:45;7.18;;;5.25;;
35803;SDS011;21924;51.934;7.414;2023-02-28T05:02:29;8.20;;;5.97;;
35803;SDS011;21924;51.934;7.414;2023-02-28T05:05:13;7.03;;;5.63;;
35803;SDS011;21924;51.934;7.414;2023-02-28T05:08:01;8.30;;;6.03;;
35803;SDS011;21924;51.934;7.414;2023-02-28T05:10:46;14.30;;;6.07;;
35803;SDS011;21924;51.934;7.414;2023-02-28T05:13:30;6.77;;;5.90;;
35803;SDS011;21924;51.934;7.414;2023-02-28T05:16:15;10.27;;;5.83;;
35803;SDS011;21924;51.934;7.414;2023-02-28T05:19:00;9.30;;;6.27;;
35803;SDS011;21924;51.934;7.414;2023-02-28T05:21:51;8.30;;;6.37;;
35803;SDS011;21924;51.934;7.414;2023-02-28T05:24:37;10.77;;;6.00;;
35803;SDS011;21924;51.934;7.414;2023-02-28T05:27:21;7.10;;;6.07;;
35803;SDS011;21924;51.934;7.414;2023-02-28T05:30:06;9.57;;;6.43;;
35803;SDS011;21924;51.934;7.414;2023-02-28T05:32:53;6.87;;;5.73;;
35803;SDS011;21924;51.934;7.414;2023-02-28T05:35:38;8.43;;;6.27;;
35803;SDS011;21924;51.934;7.414;2023-02-28T05:38:29;6.80;;;5.73;;
35803;SDS011;21924;51.934;7.414;2023-02-28T05:41:13;14.90;;;5.90;;
35803;SDS011;21924;51.934;7.414;2023-02-28T05:43:58;7.07;;;6.30;;
35803;SDS011;21924;51.934;7.414;2023-02-28T05:46:44;7.05;;;6.35;;
35803;SDS011;21924;51.934;7.414;2023-02-28T05:49:28;8.97;;;5.83;;
35803;SDS011;21924;51.934;7.414;2023-02-28T05:52:12;6.10;;;5.50;;
35803;SDS011;21924;51.934;7.414;2023-02-28T05:54:56;10.40;;;6.33;;
35803;SDS011;21924;51.934;7.414;2023-02-28T05:57:41;10.90;;;6.00;;
35803;SDS011;21924;51.934;7.414;2023-02-28T06:00:26;8.50;;;5.40;;
35803;SDS011;21924;51.934;7.414;2023-02-28T06:03:10;5.83;;;5.23;;
35803;SDS011;21924;51.934;7.414;2023-02-28T06:05:54;9.63;;;5.90;;
35803;SDS011;21924;51.934;7.414;2023-02-28T06:08:38;7.93;;;5.83;;
35803;SDS011;21924;51.934;7.414;2023-02-28T06:11:23;6.87;;;4.97;;
35803;SDS011;21924;51.934;7.414;2023-02-28T06:14:17;5.70;;;5.20;;
35803;SDS011;21924;51.934;7.414;2023-02-28T06:17:02;10.00;;;6.10;;
35803;SDS011;21924;51.934;7.414;2023-02-28T06:19:47;7.43;;;5.37;;
35803;SDS011;21924;51.934;7.414;2023-02-28T06:22:31;6.90;;;5.77;;
35803;SDS011;21924;51.934;7.414;2023-02-28T06:25:16;13.73;;;6.07;;
35803;SDS011;21924;51.934;7.414;2023-02-28T06:28:00;11.90;;;6.07;;
35803;SDS011;21924;51.934;7.414;2023-02-28T06:30:44;6.53;;;5.87;;
35803;SDS011;21924;51.934;7.414;2023-02-28T06:33:29;9.17;;;5.77;;
35803;SDS011;21924;51.934;7.414;2023-02-28T06:36:14;6.20;;;5.37;;
35803;SDS011;21924;51.934;7.414;2023-02-28T06:38:59;7.10;;;5.15;;
35803;SDS011;21924;51.934;7.414;2023-02-28T06:41:43;8.67;;;6.17;;
35803;SDS011;21924;51.934;7.414;2023-02-28T06:44:29;6.18;;;5.60;;
35803;SDS011;21924;51.934;7.414;2023-02-28T06:47:18;6.20;;;5.60;;
35803;SDS011;21924;51.934;7.414;2023-02-28T06:50:03;6.47;;;5.60;;
35803;SDS011;21924;51.934;7.414;2023-02-28T06:52:48;6.67;;;5.70;;
35803;SDS011;21924;51.934;7.414;2023-02-28T06:55:37;7.40;;;6.07;;
35803;SDS011;21924;51.934;7.414;2023-02-28T06:58:22;8.47;;;6.83;;
35803;SDS011;21924;51.934;7.414;2023-02-28T07:01:07;10.17;;;6.43;;
35803;SDS011;21924;51.934;7.414;2023-02-28T07:03:52;8.20;;;6.07;;
35803;SDS011;21924;51.934;7.414;2023-02-28T07:06:36;8.90;;;5.53;;
35803;SDS011;21924;51.934;7.414;2023-02-28T07:09:21;7.10;;;5.40;;
35803;SDS011;21924;51.934;7.414;2023-02-28T07:12:05;8.13;;;6.00;;
35803;SDS011;21924;51.934;7.414;2023-02-28T07:14:50;8.53;;;5.90;;
35803;SDS011;21924;51.934;7.414;2023-02-28T07:17:34;7.40;;;5.00;;
35803;SDS011;21924;51.934;7.414;2023-02-28T07:20:19;7.33;;;5.80;;
35803;SDS011;21924;51.934;7.414;2023-02-28T07:23:03;6.40;;;5.53;;
35803;SDS011;21924;51.934;7.414;2023-02-28T07:25:47;8.23;;;6.33;;
35803;SDS011;21924;51.934;7.414;2023-02-28T07:28:33;11.73;;;6.15;;
35803;SDS011;21924;51.934;7.414;2023-02-28T07:31:17;7.30;;;6.00;;
35803;SDS011;21924;51.934;7.414;2023-02-28T07:34:02;9.17;;;7.40;;
35803;SDS011;21924;51.934;7.414;2023-02-28T07:36:47;13.23;;;8.77;;
35803;SDS011;21924;51.934;7.414;2023-02-28T07:39:31;15.00;;;9.47;;
35803;SDS011;21924;51.934;7.414;2023-02-28T07:42:15;12.93;;;8.90;;
35803;SDS011;21924;51.934;7.414;2023-02-28T07:44:59;17.13;;;10.30;;
35803;SDS011;21924;51.934;7.414;2023-02-28T07:47:44;40.70;;;17.07;;
35803;SDS011;21924;51.934;7.414;2023-02-28T07:50:29;45.83;;;18.63;;
35803;SDS011;21924;51.934;7.414;2023-02-28T07:53:14;47.17;;;20.30;;
35803;SDS011;21924;51.934;7.414;2023-02-28T07:55:59;65.70;;;24.93;;
35803;SDS011;21924;51.934;7.414;2023-02-28T07:58:44;91.38;;;29.15;;
35803;SDS011;21924;51.934;7.414;2023-02-28T08:01:29;93.20;;;32.53;;
35803;SDS011;21924;51.934;7.414;2023-02-28T08:04:13;79.83;;;29.80;;
35803;SDS011;21924;51.934;7.414;2023-02-28T08:06:57;80.70;;;27.03;;
35803;SDS011;21924;51.934;7.414;2023-02-28T08:09:42;67.13;;;21.17;;
35803;SDS011;21924;51.934;7.414;2023-02-28T08:12:26;44.73;;;17.80;;
35803;SDS011;21924;51.934;7.414;2023-02-28T08:15:11;45.87;;;14.77;;
35803;SDS011;21924;51.934;7.414;2023-02-28T08:17:55;37.17;;;12.77;;
35803;SDS011;21924;51.934;7.414;2023-02-28T08:20:39;39.43;;;15.07;;
35803;SDS011;21924;51.934;7.414;2023-02-28T08:23:24;34.90;;;13.90;;
35803;SDS011;21924;51.934;7.414;2023-02-28T08:26:08;24.97;;;11.03;;
35803;SDS011;21924;51.934;7.414;2023-02-28T08:28:53;29.73;;;11.37;;
35803;SDS011;21924;51.934;7.414;2023-02-28T08:31:37;30.17;;;11.30;;
35803;SDS011;21924;51.934;7.414;2023-02-28T08:34:22;23.00;;;9.93;;
35803;SDS011;21924;51.934;7.414;2023-02-28T08:37:06;19.87;;;9.37;;
35803;SDS011;21924;51.934;7.414;2023-02-28T08:39:50;22.57;;;8.93;;
35803;SDS011;21924;51.934;7.414;2023-02-28T08:42:35;22.50;;;8.80;;
35803;SDS011;21924;51.934;7.414;2023-02-28T08:45:19;13.73;;;7.00;;
35803;SDS011;21924;51.934;7.414;2023-02-28T08:48:03;9.90;;;6.27;;
35803;SDS011;21924;51.934;7.414;2023-02-28T08:54:05;8.43;;;5.60;;
35803;SDS011;21924;51.934;7.414;2023-02-28T08:56:49;6.13;;;5.07;;
35803;SDS011;21924;51.934;7.414;2023-02-28T08:59:33;8.40;;;5.63;;
35803;SDS011;21924;51.934;7.414;2023-02-28T09:02:18;7.83;;;5.23;;
35803;SDS011;21924;51.934;7.414;2023-02-28T09:05:02;14.10;;;5.77;;
35803;SDS011;21924;51.934;7.414;2023-02-28T09:07:47;9.70;;;5.23;;
35803;SDS011;21924;51.934;7.414;2023-02-28T09:10:31;12.02;;;6.07;;
35803;SDS011;21924;51.934;7.414;2023-02-28T09:13:16;13.40;;;5.73;;
35803;SDS011;21924;51.934;7.414;2023-02-28T09:16:01;14.57;;;6.40;;
35803;SDS011;21924;51.934;7.414;2023-02-28T09:18:47;11.80;;;6.88;;
35803;SDS011;21924;51.934;7.414;2023-02-28T09:21:32;13.23;;;4.90;;
35803;SDS011;21924;51.934;7.414;2023-02-28T09:24:16;9.30;;;4.60;;
35803;SDS011;21924;51.934;7.414;2023-02-28T09:27:01;7.82;;;4.68;;
35803;SDS011;21924;51.934;7.414;2023-02-28T09:29:46;5.22;;;4.53;;
35803;SDS011;21924;51.934;7.414;2023-02-28T09:32:30;6.55;;;4.25;;
35803;SDS011;21924;51.934;7.414;2023-02-28T09:35:14;7.68;;;5.55;;
35803;SDS011;21924;51.934;7.414;2023-02-28T09:37:59;18.17;;;4.93;;
35803;SDS011;21924;51.934;7.414;2023-02-28T09:43:34;8.02;;;4.70;;
35803;SDS011;21924;51.934;7.414;2023-02-28T09:46:25;9.57;;;5.50;;
35803;SDS011;21924;51.934;7.414;2023-02-28T09:49:19;12.82;;;5.97;;
35803;SDS011;21924;51.934;7.414;2023-02-28T09:52:18;11.82;;;5.75;;
35803;SDS011;21924;51.934;7.414;2023-02-28T09:58:16;16.05;;;5.32;;
35803;SDS011;21924;51.934;7.414;2023-02-28T10:10:50;6.47;;;4.07;;
35803;SDS011;21924;51.934;7.414;2023-02-28T10:16:46;4.68;;;3.50;;
35803;SDS011;21924;51.934;7.414;2023-02-28T10:19:42;5.50;;;3.33;;
35803;SDS011;21924;51.934;7.414;2023-02-28T10:22:39;4.90;;;3.38;;
35803;SDS011;21924;51.934;7.414;2023-02-28T10:25:35;3.45;;;3.15;;
35803;SDS011;21924;51.934;7.414;2023-02-28T10:28:21;3.30;;;3.00;;
35803;SDS011;21924;51.934;7.414;2023-02-28T10:31:05;5.13;;;3.05;;
35803;SDS011;21924;51.934;7.414;2023-02-28T10:33:58;3.90;;;3.15;;
35803;SDS011;21924;51.934;7.414;2023-02-28T10:36:43;3.08;;;2.88;;
35803;SDS011;21924;51.934;7.414;2023-02-28T10:40:01;5.47;;;3.30;;
35803;SDS011;21924;51.934;7.414;2023-02-28T10:42:38;4.47;;;3.20;;
35803;SDS011;21924;51.934;7.414;2023-02-28T10:45:23;3.42;;;3.13;;
35803;SDS011;21924;51.934;7.414;2023-02-28T10:50:52;3.25;;;2.95;;
35803;SDS011;21924;51.934;7.414;2023-02-28T10:53:48;3.28;;;3.05;;
35803;SDS011;21924;51.934;7.414;2023-02-28T10:56:34;4.28;;;2.95;;
35803;SDS011;21924;51.934;7.414;2023-02-28T10:59:26;3.50;;;3.17;;
35803;SDS011;21924;51.934;7.414;2023-02-28T11:02:29;3.80;;;3.50;;
35803;SDS011;21924;51.934;7.414;2023-02-28T11:05:35;9.35;;;3.78;;
35803;SDS011;21924;51.934;7.414;2023-02-28T11:08:20;5.57;;;3.17;;
35803;SDS011;21924;51.934;7.414;2023-02-28T11:11:05;4.97;;;3.63;;
35803;SDS011;21924;51.934;7.414;2023-02-28T11:13:51;14.73;;;3.70;;
35803;SDS011;21924;51.934;7.414;2023-02-28T11:16:38;5.85;;;3.72;;
35803;SDS011;21924;51.934;7.414;2023-02-28T11:19:26;4.30;;;3.50;;
35803;SDS011;21924;51.934;7.414;2023-02-28T11:22:17;4.85;;;3.75;;
35803;SDS011;21924;51.934;7.414;2023-02-28T11:25:07;5.75;;;3.53;;
35803;SDS011;21924;51.934;7.414;2023-02-28T11:28:00;3.80;;;3.50;;
35803;SDS011;21924;51.934;7.414;2023-02-28T11:33:57;4.13;;;3.72;;
35803;SDS011;21924;51.934;7.414;2023-02-28T11:36:41;4.22;;;3.67;;
35803;SDS011;21924;51.934;7.414;2023-02-28T11:39:28;4.88;;;3.53;;
35803;SDS011;21924;51.934;7.414;2023-02-28T11:45:30;5.15;;;3.53;;
35803;SDS011;21924;51.934;7.414;2023-02-28T11:54:59;3.10;;;2.90;;
35803;SDS011;21924;51.934;7.414;2023-02-28T11:58:05;5.18;;;3.65;;
35803;SDS011;21924;51.934;7.414;2023-02-28T12:01:16;3.92;;;3.22;;
35803;SDS011;21924;51.934;7.414;2023-02-28T12:07:31;4.15;;;3.75;;
35803;SDS011;21924;51.934;7.414;2023-02-28T12:13:46;5.10;;;3.33;;
35803;SDS011;21924;51.934;7.414;2023-02-28T12:16:47;8.93;;;3.42;;
35803;SDS011;21924;51.934;7.414;2023-02-28T12:19:54;5.00;;;3.15;;
35803;SDS011;21924;51.934;7.414;2023-02-28T12:28:41;3.45;;;2.92;;
35803;SDS011;21924;51.934;7.414;2023-02-28T12:31:36;3.65;;;3.08;;
35803;SDS011;21924;51.934;7.414;2023-02-28T12:34:26;6.30;;;3.10;;
35803;SDS011;21924;51.934;7.414;2023-02-28T12:37:22;3.20;;;2.90;;
35803;SDS011;21924;51.934;7.414;2023-02-28T12:40:17;4.00;;;3.63;;
35803;SDS011;21924;51.934;7.414;2023-02-28T12:43:04;3.30;;;3.00;;
35803;SDS011;21924;51.934;7.414;2023-02-28T12:48:53;3.58;;;3.28;;
35803;SDS011;21924;51.934;7.414;2023-02-28T12:51:40;3.45;;;3.15;;
35803;SDS011;21924;51.934;7.414;2023-02-28T12:55:00;7.65;;;3.33;;
35803;SDS011;21924;51.934;7.414;2023-02-28T12:57:49;3.70;;;3.40;;
35803;SDS011;21924;51.934;7.414;2023-02-28T13:01:02;4.32;;;3.53;;
35803;SDS011;21924;51.934;7.414;2023-02-28T13:04:16;4.93;;;4.00;;
35803;SDS011;21924;51.934;7.414;2023-02-28T13:10:21;6.85;;;4.15;;
35803;SDS011;21924;51.934;7.414;2023-02-28T13:13:05;5.28;;;3.60;;
35803;SDS011;21924;51.934;7.414;2023-02-28T13:16:06;5.03;;;3.67;;
35803;SDS011;21924;51.934;7.414;2023-02-28T13:18:52;5.50;;;3.90;;
35803;SDS011;21924;51.934;7.414;2023-02-28T13:21:53;4.22;;;3.63;;
35803;SDS011;21924;51.934;7.414;2023-02-28T13:24:57;10.98;;;3.95;;
35803;SDS011;21924;51.934;7.414;2023-02-28T13:27:41;5.75;;;3.92;;
35803;SDS011;21924;51.934;7.414;2023-02-28T13:33:36;4.18;;;3.78;;
35803;SDS011;21924;51.934;7.414;2023-02-28T13:36:41;5.95;;;3.65;;
35803;SDS011;21924;51.934;7.414;2023-02-28T13:45:33;9.85;;;4.07;;
35803;SDS011;21924;51.934;7.414;2023-02-28T13:48:23;5.30;;;3.97;;
35803;SDS011;21924;51.934;7.414;2023-02-28T13:51:27;4.93;;;3.78;;
35803;SDS011;21924;51.934;7.414;2023-02-28T14:03:58;5.68;;;4.43;;
35803;SDS011;21924;51.934;7.414;2023-02-28T14:07:08;17.85;;;6.72;;
35803;SDS011;21924;51.934;7.414;2023-02-28T14:10:04;5.70;;;3.60;;
35803;SDS011;21924;51.934;7.414;2023-02-28T14:16:15;4.95;;;3.88;;
35803;SDS011;21924;51.934;7.414;2023-02-28T14:21:50;5.95;;;3.80;;
35803;SDS011;21924;51.934;7.414;2023-02-28T14:28:07;8.55;;;5.90;;
35803;SDS011;21924;51.934;7.414;2023-02-28T14:36:42;10.25;;;4.88;;
35803;SDS011;21924;51.934;7.414;2023-02-28T14:39:28;4.25;;;3.80;;
35803;SDS011;21924;51.934;7.414;2023-02-28T14:45:19;4.88;;;3.67;;
35803;SDS011;21924;51.934;7.414;2023-02-28T14:48:04;4.57;;;4.03;;
35803;SDS011;21924;51.934;7.414;2023-02-28T14:50:54;4.63;;;3.75;;
35803;SDS011;21924;51.934;7.414;2023-02-28T14:53:43;5.32;;;3.97;;
35803;SDS011;21924;51.934;7.414;2023-02-28T14:56:35;5.35;;;4.30;;
35803;SDS011;21924;51.934;7.414;2023-02-28T14:59:34;6.38;;;4.03;;
35803;SDS011;21924;51.934;7.414;2023-02-28T15:02:22;5.95;;;3.58;;
35803;SDS011;21924;51.934;7.414;2023-02-28T15:08:12;4.82;;;4.32;;
35803;SDS011;21924;51.934;7.414;2023-02-28T15:10:59;6.30;;;4.47;;
35803;SDS011;21924;51.934;7.414;2023-02-28T15:13:46;4.50;;;4.07;;
35803;SDS011;21924;51.934;7.414;2023-02-28T15:16:39;5.22;;;3.90;;
35803;SDS011;21924;51.934;7.414;2023-02-28T15:19:28;8.77;;;4.45;;
35803;SDS011;21924;51.934;7.414;2023-02-28T15:22:15;6.30;;;4.28;;
35803;SDS011;21924;51.934;7.414;2023-02-28T15:25:02;4.97;;;4.40;;
35803;SDS011;21924;51.934;7.414;2023-02-28T15:27:50;4.82;;;4.38;;
35803;SDS011;21924;51.934;7.414;2023-02-28T15:30:38;6.43;;;4.35;;
35803;SDS011;21924;51.934;7.414;2023-02-28T15:33:24;8.07;;;4.85;;
35803;SDS011;21924;51.934;7.414;2023-02-28T15:36:14;7.60;;;4.75;;
35803;SDS011;21924;51.934;7.414;2023-02-28T15:39:01;4.88;;;4.20;;
35803;SDS011;21924;51.934;7.414;2023-02-28T15:41:46;6.03;;;4.63;;
35803;SDS011;21924;51.934;7.414;2023-02-28T15:44:33;6.22;;;5.05;;
35803;SDS011;21924;51.934;7.414;2023-02-28T15:47:18;7.13;;;5.15;;
35803;SDS011;21924;51.934;7.414;2023-02-28T15:50:10;7.38;;;4.55;;
35803;SDS011;21924;51.934;7.414;2023-02-28T15:52:57;5.47;;;4.32;;
35803;SDS011;21924;51.934;7.414;2023-02-28T15:55:41;4.70;;;4.28;;
35803;SDS011;21924;51.934;7.414;2023-02-28T15:58:26;5.85;;;4.20;;
35803;SDS011;21924;51.934;7.414;2023-02-28T16:01:24;6.97;;;4.15;;
35803;SDS011;21924;51.934;7.414;2023-02-28T16:04:15;6.38;;;4.80;;
35803;SDS011;21924;51.934;7.414;2023-02-28T16:07:03;5.80;;;4.20;;
35803;SDS011;21924;51.934;7.414;2023-02-28T16:09:48;29.38;;;9.70;;
35803;SDS011;21924;51.934;7.414;2023-02-28T16:12:34;26.90;;;9.27;;
35803;SDS011;21924;51.934;7.414;2023-02-28T16:15:23;422.50;;;100.15;;
35803;SDS011;21924;51.934;7.414;2023-02-28T16:18:14;254.95;;;62.17;;
35803;SDS011;21924;51.934;7.414;2023-02-28T16:20:59;426.40;;;109.07;;
35803;SDS011;21924;51.934;7.414;2023-02-28T16:23:43;64.07;;;23.05;;
35803;SDS011;21924;51.934;7.414;2023-02-28T16:26:27;11.07;;;5.72;;
35803;SDS011;21924;51.934;7.414;2023-02-28T16:29:13;46.47;;;16.52;;
35803;SDS011;21924;51.934;7.414;2023-02-28T16:32:18;22.15;;;11.68;;
35803;SDS011;21924;51.934;7.414;2023-02-28T16:35:03;22.60;;;11.93;;
35803;SDS011;21924;51.934;7.414;2023-02-28T16:37:53;10.85;;;7.65;;
35803;SDS011;21924;51.934;7.414;2023-02-28T16:40:37;7.60;;;6.10;;
35803;SDS011;21924;51.934;7.414;2023-02-28T16:43:23;12.10;;;8.18;;
35803;SDS011;21924;51.934;7.414;2023-02-28T16:46:10;9.95;;;7.15;;
35803;SDS011;21924;51.934;7.414;2023-02-28T16:51:40;15.15;;;7.95;;
35803;SDS011;21924;51.934;7.414;2023-02-28T16:54:25;16.27;;;7.20;;
35803;SDS011;21924;51.934;7.414;2023-02-28T16:57:15;11.38;;;6.30;;
35803;SDS011;21924;51.934;7.414;2023-02-28T17:00:04;6.40;;;5.40;;
35803;SDS011;21924;51.934;7.414;2023-02-28T17:02:51;14.38;;;7.50;;
35803;SDS011;21924;51.934;7.414;2023-02-28T17:05:37;11.05;;;6.40;;
35803;SDS011;21924;51.934;7.414;2023-02-28T17:08:23;19.25;;;6.40;;
35803;SDS011;21924;51.934;7.414;2023-02-28T17:11:08;8.38;;;5.68;;
35803;SDS011;21924;51.934;7.414;2023-02-28T17:13:52;8.55;;;5.18;;
35803;SDS011;21924;51.934;7.414;2023-02-28T17:16:40;10.05;;;5.80;;
35803;SDS011;21924;51.934;7.414;2023-02-28T17:19:25;14.77;;;6.25;;
35803;SDS011;21924;51.934;7.414;2023-02-28T17:22:10;7.35;;;6.05;;
35803;SDS011;21924;51.934;7.414;2023-02-28T17:24:54;8.50;;;5.57;;
35803;SDS011;21924;51.934;7.414;2023-02-28T17:27:42;9.27;;;6.60;;
35803;SDS011;21924;51.934;7.414;2023-02-28T17:30:27;11.80;;;6.25;;
35803;SDS011;21924;51.934;7.414;2023-02-28T17:33:12;11.35;;;7.28;;
35803;SDS011;21924;51.934;7.414;2023-02-28T17:35:56;6.78;;;5.60;;
35803;SDS011;21924;51.934;7.414;2023-02-28T17:38:40;13.55;;;5.93;;
35803;SDS011;21924;51.934;7.414;2023-02-28T17:41:25;13.55;;;6.53;;
35803;SDS011;21924;51.934;7.414;2023-02-28T17:44:14;8.73;;;6.18;;
35803;SDS011;21924;51.934;7.414;2023-02-28T17:46:58;9.35;;;6.10;;
35803;SDS011;21924;51.934;7.414;2023-02-28T17:49:43;9.80;;;7.10;;
35803;SDS011;21924;51.934;7.414;2023-02-28T17:52:27;17.88;;;8.15;;
35803;SDS011;21924;51.934;7.414;2023-02-28T17:55:13;24.08;;;12.15;;
35803;SDS011;21924;51.934;7.414;2023-02-28T17:57:57;44.17;;;24.10;;
35803;SDS011;21924;51.934;7.414;2023-02-28T18:00:41;31.58;;;17.98;;
35803;SDS011;21924;51.934;7.414;2023-02-28T18:03:25;23.08;;;13.10;;
35803;SDS011;21924;51.934;7.414;2023-02-28T18:06:22;22.10;;;14.48;;
35803;SDS011;21924;51.934;7.414;2023-02-28T18:09:08;17.48;;;12.57;;
35803;SDS011;21924;51.934;7.414;2023-02-28T18:11:53;12.15;;;10.38;;
35803;SDS011;21924;51.934;7.414;2023-02-28T18:14:38;12.80;;;8.68;;
35803;SDS011;21924;51.934;7.414;2023-02-28T18:17:23;11.30;;;8.80;;
35803;SDS011;21924;51.934;7.414;2023-02-28T18:20:08;14.90;;;9.17;;
35803;SDS011;21924;51.934;7.414;2023-02-28T18:22:53;24.95;;;10.73;;
35803;SDS011;21924;51.934;7.414;2023-02-28T18:25:38;19.70;;;10.53;;
35803;SDS011;21924;51.934;7.414;2023-02-28T18:28:24;12.70;;;8.25;;
35803;SDS011;21924;51.934;7.414;2023-02-28T18:31:09;31.33;;;11.83;;
35803;SDS011;21924;51.934;7.414;2023-02-28T18:33:59;25.23;;;11.73;;
35803;SDS011;21924;51.934;7.414;2023-02-28T18:36:44;19.87;;;10.57;;
35803;SDS011;21924;51.934;7.414;2023-02-28T18:39:30;9.20;;;7.40;;
35803;SDS011;21924;51.934;7.414;2023-02-28T18:42:15;9.02;;;6.45;;
35803;SDS011;21924;51.934;7.414;2023-02-28T18:44:59;16.07;;;6.93;;
35803;SDS011;21924;51.934;7.414;2023-02-28T18:47:43;11.13;;;7.23;;
35803;SDS011;21924;51.934;7.414;2023-02-28T18:50:27;8.38;;;6.88;;
35803;SDS011;21924;51.934;7.414;2023-02-28T18:53:11;15.32;;;7.25;;
35803;SDS011;21924;51.934;7.414;2023-02-28T18:55:59;19.42;;;9.13;;
35803;SDS011;21924;51.934;7.414;2023-02-28T18:58:44;13.70;;;9.13;;
35803;SDS011;21924;51.934;7.414;2023-02-28T19:01:28;17.03;;;9.47;;
35803;SDS011;21924;51.934;7.414;2023-02-28T19:04:14;37.42;;;16.25;;
35803;SDS011;21924;51.934;7.414;2023-02-28T19:06:58;20.43;;;10.77;;